createdAt,value
2018-11-28T00:01:26.570Z,27.87
2018-11-28T00:03:54.699Z,27.35
2018-11-28T00:06:22.790Z,28.75
2018-11-28T00:08:50.982Z,27.48
2018-11-28T00:11:19.159Z,27.55
2018-11-28T00:13:47.280Z,27.65
2018-11-28T00:16:15.491Z,28.30
2018-11-28T00:18:43.603Z,27.22
2018-11-28T00:21:11.731Z,26.75
2018-11-28T00:23:39.854Z,27.17
2018-11-28T00:26:08.071Z,28.07
2018-11-28T00:28:36.169Z,27.20
2018-11-28T00:31:04.435Z,25.80
2018-11-28T00:33:32.703Z,27.17
2018-11-28T00:36:00.851Z,27.67
2018-11-28T00:38:28.974Z,27.20
2018-11-28T00:40:57.233Z,26.82
2018-11-28T00:43:25.355Z,25.85
2018-11-28T00:45:53.719Z,26.62
2018-11-28T00:48:21.847Z,27.10
2018-11-28T00:50:49.963Z,26.85
2018-11-28T00:53:18.075Z,25.88
2018-11-28T00:55:48.475Z,26.52
2018-11-28T00:58:14.418Z,26.65
2018-11-28T01:00:42.543Z,26.65
2018-11-28T01:03:10.781Z,26.70
2018-11-28T01:05:38.931Z,25.95
2018-11-28T01:08:07.112Z,26.10
2018-11-28T01:10:35.251Z,27.60
2018-11-28T01:13:03.428Z,27.45
2018-11-28T01:15:31.543Z,26.60
2018-11-28T01:17:59.647Z,26.80
2018-11-28T01:20:27.778Z,26.85
2018-11-28T01:22:55.925Z,28.12
2018-11-28T01:25:24.114Z,27.63
2018-11-28T01:27:52.565Z,28.60
2018-11-28T01:30:21.884Z,26.63
2018-11-28T01:32:50.182Z,26.15
2018-11-28T01:35:19.095Z,25.62
2018-11-28T01:37:47.264Z,25.02
2018-11-28T01:40:17.199Z,26.00
2018-11-28T01:42:45.402Z,26.97
2018-11-28T01:45:15.331Z,24.72
2018-11-28T01:47:43.627Z,26.10
2018-11-28T01:50:12.780Z,24.72
2018-11-28T01:52:40.970Z,25.05
2018-11-28T01:55:13.045Z,26.95
2018-11-28T01:57:41.220Z,25.20
2018-11-28T02:00:17.899Z,25.90
2018-11-28T02:02:47.416Z,26.00
2018-11-28T02:05:15.611Z,26.20
2018-11-28T02:07:43.740Z,25.77
2018-11-28T02:10:13.728Z,28.23
2018-11-28T02:12:41.875Z,29.48
2018-11-28T02:15:15.120Z,29.47
2018-11-28T02:17:43.262Z,30.08
2018-11-28T02:20:13.225Z,30.35
2018-11-28T02:22:41.427Z,29.05
2018-11-28T02:25:13.654Z,29.87
2018-11-28T02:27:41.828Z,27.45
2018-11-28T02:30:12.838Z,27.97
2018-11-28T02:32:40.984Z,29.20
2018-11-28T02:35:10.206Z,26.55
2018-11-28T02:37:38.647Z,26.10
2018-11-28T02:40:08.395Z,27.48
2018-11-28T02:42:36.546Z,28.32
2018-11-28T02:45:21.527Z,28.02
2018-11-28T02:47:50.277Z,29.67
2018-11-28T02:50:18.358Z,28.07
2018-11-28T02:52:46.476Z,28.65
2018-11-28T02:55:15.247Z,26.87
2018-11-28T02:57:45.432Z,26.62
2018-11-28T03:00:16.664Z,28.27
2018-11-28T03:02:44.801Z,27.98
2018-11-28T03:05:13.161Z,27.07
2018-11-28T03:07:41.380Z,27.27
2018-11-28T03:10:25.891Z,26.87
2018-11-28T03:12:54.036Z,25.40
2018-11-28T03:15:27.766Z,26.07
2018-11-28T03:17:55.917Z,26.15
2018-11-28T03:20:24.107Z,26.33
2018-11-28T03:22:52.259Z,26.15
2018-11-28T03:25:20.376Z,25.70
2018-11-28T03:27:48.476Z,25.75
2018-11-28T03:30:16.657Z,26.05
2018-11-28T03:32:44.797Z,25.88
2018-11-28T03:35:14.251Z,25.77
2018-11-28T03:37:42.360Z,26.68
2018-11-28T03:40:10.525Z,25.45
2018-11-28T03:42:38.675Z,24.85
2018-11-28T03:45:10.950Z,24.50
2018-11-28T03:47:39.179Z,23.98
2018-11-28T03:50:08.614Z,24.98
2018-11-28T03:52:37.152Z,24.70
2018-11-28T03:55:07.029Z,25.68
2018-11-28T03:57:35.135Z,25.88
2018-11-28T04:00:04.079Z,25.08
2018-11-28T04:02:32.254Z,24.80
2018-11-28T04:05:00.349Z,24.92
2018-11-28T04:07:28.546Z,25.00
2018-11-28T04:09:56.661Z,26.17
2018-11-28T04:12:24.814Z,26.93
2018-11-28T04:14:52.934Z,27.87
2018-11-28T04:17:21.034Z,27.22
2018-11-28T04:19:49.128Z,26.00
2018-11-28T04:22:17.240Z,25.50
2018-11-28T04:24:45.445Z,27.50
2018-11-28T04:27:13.679Z,27.48
2018-11-28T04:29:41.802Z,27.27
2018-11-28T04:32:10.050Z,27.90
2018-11-28T04:34:38.174Z,27.37
2018-11-28T04:37:07.023Z,27.73
2018-11-28T04:39:35.210Z,29.37
2018-11-28T04:42:03.362Z,29.57
2018-11-28T04:44:33.016Z,29.30
2018-11-28T04:47:01.187Z,28.35
2018-11-28T04:49:29.375Z,30.52
2018-11-28T04:51:57.476Z,29.35
2018-11-28T04:54:25.682Z,27.75
2018-11-28T04:56:53.767Z,29.37
2018-11-28T04:59:21.849Z,27.43
2018-11-28T05:01:49.938Z,27.65
2018-11-28T05:04:18.118Z,27.02
2018-11-28T05:07:50.302Z,26.77
2018-11-28T05:10:20.479Z,27.17
2018-11-28T05:12:48.826Z,27.15
2018-11-28T05:15:17.930Z,26.75
2018-11-28T05:17:48.043Z,27.30
2018-11-28T05:20:18.146Z,28.02
2018-11-28T05:22:46.256Z,27.40
2018-11-28T05:25:21.247Z,26.45
2018-11-28T05:27:50.169Z,27.87
2018-11-28T05:30:19.188Z,26.70
2018-11-28T05:32:48.375Z,26.97
2018-11-28T05:35:17.784Z,26.68
2018-11-28T05:37:47.140Z,28.50
2018-11-28T05:40:24.870Z,29.72
2018-11-28T05:42:53.119Z,30.23
2018-11-28T05:45:21.316Z,28.00
2018-11-28T05:47:49.520Z,27.60
2018-11-28T05:50:21.602Z,28.87
2018-11-28T05:52:49.819Z,28.70
2018-11-28T05:55:18.988Z,29.15
2018-11-28T05:57:47.158Z,30.30
2018-11-28T06:00:23.168Z,29.85
2018-11-28T06:02:51.311Z,29.85
2018-11-28T06:05:19.403Z,30.48
2018-11-28T06:07:47.555Z,30.00
2018-11-28T06:10:15.619Z,29.25
2018-11-28T06:12:43.837Z,30.40
2018-11-28T06:15:12.423Z,29.90
2018-11-28T06:17:40.567Z,28.03
2018-11-28T06:20:13.802Z,29.05
2018-11-28T06:22:41.896Z,28.47
2018-11-28T06:25:16.130Z,28.53
2018-11-28T06:27:40.954Z,28.30
2018-11-28T06:30:10.663Z,29.02
2018-11-28T06:32:38.807Z,29.10
2018-11-28T06:35:07.936Z,30.37
2018-11-28T06:37:36.443Z,31.75
2018-11-28T06:40:07.130Z,30.82
2018-11-28T06:42:35.254Z,31.02
2018-11-28T06:45:03.374Z,30.20
2018-11-28T06:47:31.492Z,29.98
2018-11-28T06:49:59.689Z,29.87
2018-11-28T06:52:27.807Z,30.97
2018-11-28T06:54:55.908Z,30.43
2018-11-28T06:57:24.055Z,30.80
2018-11-28T06:59:52.166Z,29.63
2018-11-28T07:02:20.314Z,30.82
2018-11-28T07:04:48.428Z,30.77
2018-11-28T07:07:16.539Z,31.55
2018-11-28T07:09:44.747Z,30.70
2018-11-28T07:12:12.847Z,30.65
2018-11-28T07:14:41.036Z,31.68
2018-11-28T07:17:09.263Z,30.48
2018-11-28T07:19:37.468Z,30.97
2018-11-28T07:22:05.591Z,29.65
2018-11-28T07:24:33.851Z,29.92
2018-11-28T07:27:01.931Z,29.35
2018-11-28T07:29:30.104Z,29.63
2018-11-28T07:31:58.227Z,30.53
2018-11-28T07:34:26.400Z,28.23
2018-11-28T07:36:54.523Z,29.02
2018-11-28T07:39:22.662Z,27.82
2018-11-28T07:41:50.763Z,27.27
2018-11-28T07:44:18.875Z,27.95
2018-11-28T07:46:46.958Z,27.93
2018-11-28T07:49:15.180Z,28.32
2018-11-28T07:51:43.304Z,28.23
2018-11-28T07:54:11.419Z,28.75
2018-11-28T07:56:39.541Z,28.17
2018-11-28T07:59:07.695Z,27.20
2018-11-28T08:01:35.847Z,27.73
2018-11-28T08:04:04.017Z,27.87
2018-11-28T08:06:32.192Z,27.93
2018-11-28T08:09:00.253Z,28.00
2018-11-28T08:11:28.343Z,26.85
2018-11-28T08:13:56.464Z,27.37
2018-11-28T08:16:24.595Z,27.32
2018-11-28T08:18:52.886Z,27.80
2018-11-28T08:21:21.024Z,28.32
2018-11-28T08:23:49.124Z,28.07
2018-11-28T08:26:17.223Z,27.93
2018-11-28T08:28:45.347Z,28.57
2018-11-28T08:31:13.467Z,27.35
2018-11-28T08:33:41.583Z,27.62
2018-11-28T08:36:09.808Z,27.67
2018-11-28T08:38:37.893Z,28.23
2018-11-28T08:41:06.251Z,28.90
2018-11-28T08:43:34.431Z,28.70
2018-11-28T08:46:02.587Z,28.05
2018-11-28T08:48:30.851Z,27.95
2018-11-28T08:50:59.127Z,28.00
2018-11-28T08:53:27.219Z,27.73
2018-11-28T08:55:55.327Z,27.32
2018-11-28T08:58:23.543Z,28.57
2018-11-28T09:00:51.696Z,28.23
2018-11-28T09:03:19.806Z,27.40
2018-11-28T09:05:48.015Z,28.85
2018-11-28T09:08:16.147Z,28.12
2018-11-28T09:10:44.395Z,27.70
2018-11-28T09:13:12.515Z,27.17
2018-11-28T09:15:40.628Z,27.13
2018-11-28T09:18:08.824Z,27.20
2018-11-28T09:20:36.923Z,26.77
2018-11-28T09:23:06.094Z,28.20
2018-11-28T09:25:34.286Z,27.75
2018-11-28T09:28:02.486Z,27.02
2018-11-28T09:30:30.599Z,27.90
2018-11-28T09:32:58.788Z,28.42
2018-11-28T09:35:26.944Z,28.10
2018-11-28T09:37:55.037Z,27.58
2018-11-28T09:40:24.137Z,28.37
2018-11-28T09:42:53.290Z,28.47
2018-11-28T09:45:21.551Z,27.77
2018-11-28T09:47:49.672Z,27.40
2018-11-28T09:50:19.668Z,26.62
2018-11-28T09:52:47.776Z,27.30
2018-11-28T09:55:19.963Z,26.60
2018-11-28T09:57:48.111Z,27.27
2018-11-28T10:00:23.666Z,29.18
2018-11-28T10:02:52.679Z,27.48
2018-11-28T10:05:23.993Z,26.97
2018-11-28T10:07:52.116Z,27.40
2018-11-28T10:10:20.269Z,27.67
2018-11-28T10:12:48.471Z,28.60
2018-11-28T10:15:20.467Z,28.12
2018-11-28T10:17:48.731Z,28.20
2018-11-28T10:20:17.593Z,28.02
2018-11-28T10:22:46.030Z,28.12
2018-11-28T10:25:14.995Z,27.35
2018-11-28T10:27:43.937Z,28.38
2018-11-28T10:30:19.233Z,28.23
2018-11-28T10:32:47.936Z,28.57
2018-11-28T10:35:16.066Z,27.30
2018-11-28T10:37:44.146Z,26.75
2018-11-28T10:40:13.591Z,25.25
2018-11-28T10:42:41.725Z,26.52
2018-11-28T10:45:11.585Z,26.65
2018-11-28T10:47:39.759Z,25.52
2018-11-28T10:50:10.676Z,25.13
2018-11-28T10:52:39.223Z,25.87
2018-11-28T10:55:09.384Z,26.30
2018-11-28T10:57:37.511Z,26.12
2018-11-28T11:00:08.582Z,26.40
2018-11-28T11:02:42.229Z,26.42
2018-11-28T11:05:15.913Z,27.40
2018-11-28T11:07:49.247Z,26.45
2018-11-28T11:10:22.702Z,28.17
2018-11-28T11:12:56.287Z,27.20
2018-11-28T11:15:24.398Z,26.75
2018-11-28T11:17:52.602Z,25.82
2018-11-28T11:20:20.711Z,27.05
2018-11-28T11:22:48.897Z,26.70
2018-11-28T11:25:16.991Z,26.80
2018-11-28T11:27:45.075Z,26.95
2018-11-28T11:30:13.178Z,28.42
2018-11-28T11:32:41.362Z,28.05
2018-11-28T11:35:09.862Z,27.33
2018-11-28T11:37:37.967Z,26.68
2018-11-28T11:40:09.106Z,26.30
2018-11-28T11:42:37.202Z,27.53
2018-11-28T11:45:06.907Z,26.87
2018-11-28T11:47:35.371Z,27.15
2018-11-28T11:50:03.832Z,26.73
2018-11-28T11:52:31.990Z,27.43
2018-11-28T11:55:00.072Z,26.23
2018-11-28T11:57:28.175Z,26.65
2018-11-28T11:59:56.458Z,26.05
2018-11-28T12:02:24.546Z,25.55
2018-11-28T12:04:52.643Z,25.97
2018-11-28T12:07:20.767Z,27.40
2018-11-28T12:09:48.892Z,26.10
2018-11-28T12:12:17.103Z,26.60
2018-11-28T12:14:45.258Z,26.02
2018-11-28T12:17:13.366Z,25.67
2018-11-28T12:19:41.444Z,26.33
2018-11-28T12:22:09.542Z,26.68
2018-11-28T12:24:37.746Z,27.15
2018-11-28T12:27:06.145Z,26.17
2018-11-28T12:29:34.226Z,27.20
2018-11-28T12:32:02.358Z,26.97
2018-11-28T12:34:30.480Z,26.70
2018-11-28T12:36:58.585Z,27.48
2018-11-28T12:39:26.683Z,27.43
2018-11-28T12:41:54.766Z,27.17
2018-11-28T12:44:22.979Z,27.35
2018-11-28T12:46:51.186Z,26.82
2018-11-28T12:49:19.375Z,27.82
2018-11-28T12:51:47.480Z,27.30
2018-11-28T12:54:16.388Z,26.87
2018-11-28T12:56:44.608Z,27.77
2018-11-28T12:59:12.785Z,28.20
2018-11-28T13:01:40.925Z,28.17
2018-11-28T13:04:09.013Z,27.48
2018-11-28T13:06:37.229Z,28.62
2018-11-28T13:09:06.775Z,28.15
2018-11-28T13:11:34.939Z,27.00
2018-11-28T13:14:06.979Z,27.48
2018-11-28T13:16:35.110Z,27.52
2018-11-28T13:19:03.339Z,27.65
2018-11-28T13:21:31.371Z,28.20
2018-11-28T13:23:59.585Z,26.95
2018-11-28T13:26:27.682Z,27.45
2018-11-28T13:28:55.798Z,27.50
2018-11-28T13:31:23.910Z,27.13
2018-11-28T13:33:52.224Z,27.77
2018-11-28T13:36:22.640Z,27.48
2018-11-28T13:38:48.628Z,25.65
2018-11-28T13:41:16.615Z,27.80
2018-11-28T13:43:44.744Z,26.65
2018-11-28T13:46:12.917Z,26.17
2018-11-28T13:48:41.005Z,25.48
2018-11-28T13:51:09.135Z,26.02
2018-11-28T13:53:37.225Z,26.33
2018-11-28T13:58:34.004Z,27.20
2018-11-28T14:01:02.202Z,27.02
2018-11-28T14:03:30.443Z,26.42
2018-11-28T14:05:58.628Z,26.62
2018-11-28T14:08:26.754Z,27.13
2018-11-28T14:10:54.907Z,26.50
2018-11-28T14:13:22.996Z,26.52
2018-11-28T14:15:51.126Z,25.55
2018-11-28T14:18:19.849Z,26.68
2018-11-28T14:20:48.455Z,26.48
2018-11-28T14:23:16.567Z,26.45
2018-11-28T14:25:44.661Z,25.60
2018-11-28T14:28:13.039Z,25.85
2018-11-28T14:30:41.655Z,26.17
2018-11-28T14:33:09.860Z,25.80
2018-11-28T14:35:38.027Z,25.05
2018-11-28T14:38:06.195Z,25.62
2018-11-28T14:40:34.674Z,25.57
2018-11-28T14:43:03.011Z,25.77
2018-11-28T14:45:31.715Z,25.88
2018-11-28T14:47:59.885Z,25.32
2018-11-28T14:50:28.687Z,25.90
2018-11-28T14:52:59.831Z,25.43
2018-11-28T14:55:29.465Z,25.70
2018-11-28T14:57:57.722Z,24.75
2018-11-28T15:00:27.889Z,25.40
2018-11-28T15:02:59.084Z,25.75
2018-11-28T15:05:31.699Z,25.77
2018-11-28T15:08:02.174Z,26.48
2018-11-28T15:10:43.040Z,25.77
2018-11-28T15:13:11.805Z,26.10
2018-11-28T15:15:39.984Z,25.50
2018-11-28T15:18:08.238Z,26.87
2018-11-28T15:20:36.331Z,26.57
2018-11-28T15:23:04.554Z,26.23
2018-11-28T15:25:32.672Z,26.33
2018-11-28T15:28:00.787Z,25.40
2018-11-28T15:30:28.914Z,25.92
2018-11-28T15:32:57.016Z,26.90
2018-11-28T15:35:25.162Z,26.45
2018-11-28T15:37:53.334Z,26.70
2018-11-28T15:40:21.479Z,26.57
2018-11-28T15:42:49.702Z,26.52
2018-11-28T15:45:17.808Z,25.92
2018-11-28T15:47:46.025Z,25.72
2018-11-28T15:50:14.238Z,26.55
2018-11-28T15:52:42.392Z,25.90
2018-11-28T15:55:11.960Z,26.57
2018-11-28T15:57:40.079Z,26.33
2018-11-28T16:00:13.417Z,25.52
2018-11-28T16:02:42.656Z,25.62
2018-11-28T16:05:10.824Z,25.72
2018-11-28T16:07:38.946Z,26.00
2018-11-28T16:10:15.487Z,24.90
2018-11-28T16:12:44.247Z,26.07
2018-11-28T16:15:17.196Z,25.20
2018-11-28T16:17:45.559Z,25.95
2018-11-28T16:20:13.646Z,25.77
2018-11-28T16:22:41.808Z,25.00
2018-11-28T16:25:11.227Z,24.87
2018-11-28T16:27:41.775Z,25.23
2018-11-28T16:30:11.683Z,24.92
2018-11-28T16:32:40.156Z,23.83
2018-11-28T16:35:10.711Z,24.05
2018-11-28T16:37:38.950Z,23.50
2018-11-28T16:40:10.122Z,23.27
2018-11-28T16:42:38.387Z,27.50
2018-11-28T16:45:24.151Z,27.03
2018-11-28T16:47:52.242Z,25.70
2018-11-28T16:50:20.335Z,23.50
2018-11-28T16:52:48.439Z,23.65
2018-11-28T16:55:17.429Z,24.00
2018-11-28T16:57:47.069Z,24.47
2018-11-28T17:00:17.248Z,23.90
2018-11-28T17:02:45.407Z,24.52
2018-11-28T17:05:15.578Z,23.65
2018-11-28T17:07:43.780Z,24.47
2018-11-28T17:10:13.949Z,24.32
2018-11-28T17:12:42.378Z,23.12
2018-11-28T17:15:12.797Z,23.67
2018-11-28T17:17:41.027Z,25.60
2018-11-28T17:20:25.173Z,26.52
2018-11-28T17:22:54.643Z,25.65
2018-11-28T17:25:25.919Z,24.75
2018-11-28T17:27:54.136Z,23.10
2018-11-28T17:30:24.407Z,23.13
2018-11-28T17:32:52.539Z,23.10
2018-11-28T17:35:20.626Z,22.87
2018-11-28T17:37:48.818Z,23.27
2018-11-28T17:40:18.012Z,23.23
2018-11-28T17:42:47.366Z,23.83
2018-11-28T17:45:16.417Z,23.77
2018-11-28T17:47:44.506Z,22.58
2018-11-28T17:50:14.976Z,23.37
2018-11-28T17:52:45.088Z,22.87
2018-11-28T17:55:14.638Z,22.98
2018-11-28T17:57:42.788Z,22.85
2018-11-28T18:00:12.230Z,23.15
2018-11-28T18:02:40.678Z,22.87
2018-11-28T18:05:09.858Z,23.38
2018-11-28T18:07:38.027Z,22.83
2018-11-28T18:10:11.934Z,22.30
2018-11-28T18:12:50.215Z,22.52
2018-11-28T18:15:18.314Z,22.82
2018-11-28T18:17:46.580Z,25.32
2018-11-28T18:20:14.646Z,27.05
2018-11-28T18:22:43.635Z,25.43
2018-11-28T18:25:11.775Z,23.15
2018-11-28T18:27:39.898Z,25.30
2018-11-28T18:30:09.902Z,22.98
2018-11-28T18:32:38.094Z,22.57
2018-11-28T18:35:07.681Z,21.23
2018-11-28T18:37:35.829Z,20.95
2018-11-28T18:40:04.743Z,21.12
2018-11-28T18:42:32.853Z,20.17
2018-11-28T18:45:00.972Z,20.32
2018-11-28T18:47:29.094Z,19.65
2018-11-28T18:49:57.219Z,20.12
2018-11-28T18:52:26.356Z,18.80
2018-11-28T18:54:54.526Z,19.50
2018-11-28T18:57:22.832Z,20.30
2018-11-28T18:59:51.015Z,20.23
2018-11-28T19:02:20.170Z,20.23
2018-11-28T19:04:48.393Z,20.30
2018-11-28T19:07:16.563Z,20.25
2018-11-28T19:09:47.909Z,20.25
2018-11-28T19:12:16.094Z,19.20
2018-11-28T19:14:44.631Z,19.20
2018-11-28T19:17:12.376Z,19.82
2018-11-28T19:19:40.676Z,19.20
2018-11-28T19:22:08.742Z,19.27
2018-11-28T19:24:36.959Z,19.65
2018-11-28T19:27:05.154Z,19.95
2018-11-28T19:29:33.310Z,20.33
2018-11-28T19:32:01.535Z,21.25
2018-11-28T19:34:29.645Z,21.50
2018-11-28T19:36:57.799Z,21.62
2018-11-28T19:39:25.899Z,21.70
2018-11-28T19:41:54.138Z,21.50
2018-11-28T19:44:22.236Z,22.00
2018-11-28T19:46:50.417Z,22.58
2018-11-28T19:49:18.502Z,22.77
2018-11-28T19:51:46.623Z,22.85
2018-11-28T19:54:14.751Z,23.02
2018-11-28T19:56:42.850Z,22.80
2018-11-28T19:59:10.977Z,22.27
2018-11-28T20:01:39.079Z,21.90
2018-11-28T20:04:07.190Z,22.52
2018-11-28T20:06:35.308Z,23.50
2018-11-28T20:09:03.626Z,24.50
2018-11-28T20:11:32.105Z,24.15
2018-11-28T20:13:59.874Z,25.02
2018-11-28T20:16:27.984Z,23.92
2018-11-28T20:18:56.083Z,24.32
2018-11-28T20:21:24.202Z,24.67
2018-11-28T20:23:52.367Z,25.70
2018-11-28T20:26:20.614Z,24.90
2018-11-28T20:28:48.768Z,29.12
2018-11-28T20:31:17.042Z,35.92
2018-11-28T20:33:45.250Z,37.88
2018-11-28T20:36:13.444Z,29.87
2018-11-28T20:38:41.580Z,30.67
2018-11-28T20:41:09.995Z,30.65
2018-11-28T20:43:38.086Z,32.48
2018-11-28T20:46:10.588Z,26.23
2018-11-28T20:48:38.763Z,24.47
2018-11-28T20:51:06.907Z,25.12
2018-11-28T20:53:35.046Z,26.75
2018-11-28T20:56:03.133Z,29.10
2018-11-28T20:58:31.223Z,31.33
2018-11-28T21:00:59.341Z,30.32
2018-11-28T21:03:27.501Z,29.10
2018-11-28T21:05:55.662Z,29.65
2018-11-28T21:08:23.846Z,28.57
2018-11-28T21:10:51.970Z,28.77
2018-11-28T21:13:20.110Z,25.25
2018-11-28T21:15:48.246Z,26.30
2018-11-28T21:18:17.170Z,27.63
2018-11-28T21:20:46.137Z,27.67
2018-11-28T21:23:16.655Z,27.30
2018-11-28T21:25:44.747Z,25.95
2018-11-28T21:28:12.856Z,25.68
2018-11-28T21:30:40.961Z,26.80
2018-11-28T21:33:09.858Z,25.40
2018-11-28T21:35:39.467Z,24.70
2018-11-28T21:38:08.363Z,26.07
2018-11-28T21:40:36.493Z,25.37
2018-11-28T21:43:05.039Z,25.37
2018-11-28T21:45:33.158Z,25.72
2018-11-28T21:48:01.273Z,26.40
2018-11-28T21:50:29.386Z,25.57
2018-11-28T21:52:57.541Z,25.65
2018-11-28T21:55:25.674Z,26.27
2018-11-28T21:57:53.838Z,26.87
2018-11-28T22:00:23.146Z,27.67
2018-11-28T22:02:51.356Z,27.62
2018-11-28T22:05:19.553Z,27.80
2018-11-28T22:07:47.641Z,27.10
2018-11-28T22:10:24.479Z,27.73
2018-11-28T22:12:53.097Z,29.52
2018-11-28T22:15:21.186Z,28.90
2018-11-28T22:17:51.593Z,30.63
2018-11-28T22:20:19.736Z,31.27
2018-11-28T22:22:47.947Z,32.33
2018-11-28T22:25:17.180Z,31.00
2018-11-28T22:27:45.315Z,30.48
2018-11-28T22:30:16.414Z,30.20
2018-11-28T22:32:44.791Z,29.42
2018-11-28T22:35:12.893Z,30.65
2018-11-28T22:37:40.985Z,30.72
2018-11-28T22:40:13.310Z,32.42
2018-11-28T22:42:41.394Z,32.28
2018-11-28T22:45:27.166Z,32.33
2018-11-28T22:47:55.255Z,32.73
2018-11-28T22:50:23.367Z,34.07
2018-11-28T22:52:51.491Z,30.97
2018-11-28T22:55:19.711Z,30.62
2018-11-28T22:57:47.818Z,30.30
2018-11-28T23:00:38.742Z,31.27
2018-11-28T23:03:09.310Z,30.60
2018-11-28T23:05:44.318Z,30.17
2018-11-28T23:08:13.698Z,30.75
2018-11-28T23:10:41.834Z,30.52
2018-11-28T23:13:11.090Z,30.27
2018-11-28T23:15:39.283Z,30.85
2018-11-28T23:18:08.465Z,31.57
2018-11-28T23:20:36.648Z,33.05
2018-11-28T23:23:05.220Z,31.77
2018-11-28T23:25:33.346Z,32.55
2018-11-28T23:28:01.502Z,32.05
2018-11-28T23:30:29.949Z,32.55
2018-11-28T23:32:58.188Z,32.15
2018-11-28T23:35:26.310Z,33.00
2018-11-28T23:37:54.398Z,34.08
2018-11-28T23:40:24.200Z,32.15
2018-11-28T23:42:52.990Z,33.10
2018-11-28T23:45:21.348Z,33.45
2018-11-28T23:47:49.695Z,32.93
2018-11-28T23:50:21.567Z,34.00
2018-11-28T23:52:50.382Z,33.30
2018-11-28T23:55:23.229Z,32.63
2018-11-28T23:57:51.554Z,32.25
